sensor_id;sensor_type;location;lat;lon;timestamp;pressure;altitude;pressure_sealevel;temperature;humidity
79645;BME280;69117;47.148;18.954;2023-06-24T00:01:33;100760.63;;;18.68;58.00
79645;BME280;69117;47.148;18.954;2023-06-24T00:04:35;100764.34;;;18.67;58.12
79645;BME280;69117;47.148;18.954;2023-06-24T00:07:37;100776.84;;;18.67;58.08
79645;BME280;69117;47.148;18.954;2023-06-24T00:10:46;100782.22;;;18.67;57.95
79645;BME280;69117;47.148;18.954;2023-06-24T00:13:48;100787.75;;;18.65;58.01
79645;BME280;69117;47.148;18.954;2023-06-24T00:16:50;100781.69;;;18.57;58.11
79645;BME280;69117;47.148;18.954;2023-06-24T00:19:54;100776.69;;;18.68;58.06
79645;BME280;69117;47.148;18.954;2023-06-24T00:22:56;100763.31;;;18.83;57.93
79645;BME280;69117;47.148;18.954;2023-06-24T00:25:57;100743.38;;;18.56;57.95
79645;BME280;69117;47.148;18.954;2023-06-24T00:28:59;100747.84;;;18.49;58.00
79645;BME280;69117;47.148;18.954;2023-06-24T00:32:01;100753.00;;;18.36;57.98
79645;BME280;69117;47.148;18.954;2023-06-24T00:35:02;100774.78;;;18.33;57.89
79645;BME280;69117;47.148;18.954;2023-06-24T00:38:05;100790.00;;;18.32;58.08
79645;BME280;69117;47.148;18.954;2023-06-24T00:41:07;100780.31;;;18.31;57.85
79645;BME280;69117;47.148;18.954;2023-06-24T00:44:08;100769.03;;;18.50;58.05
79645;BME280;69117;47.148;18.954;2023-06-24T00:47:11;100756.69;;;18.35;57.98
79645;BME280;69117;47.148;18.954;2023-06-24T00:50:12;100746.47;;;18.23;57.74
79645;BME280;69117;47.148;18.954;2023-06-24T00:53:18;100745.91;;;18.13;57.88
79645;BME280;69117;47.148;18.954;2023-06-24T00:56:36;100728.75;;;18.07;57.81
79645;BME280;69117;47.148;18.954;2023-06-24T00:59:41;100728.56;;;18.39;58.05
79645;BME280;69117;47.148;18.954;2023-06-24T01:02:46;100738.31;;;18.61;58.13
79645;BME280;69117;47.148;18.954;2023-06-24T01:05:49;100731.13;;;18.47;58.09
79645;BME280;69117;47.148;18.954;2023-06-24T01:08:51;100718.78;;;18.46;58.04
79645;BME280;69117;47.148;18.954;2023-06-24T01:11:57;100716.75;;;18.33;57.99
79645;BME280;69117;47.148;18.954;2023-06-24T01:15:02;100705.13;;;18.41;58.15
79645;BME280;69117;47.148;18.954;2023-06-24T01:18:13;100705.44;;;18.16;57.98
79645;BME280;69117;47.148;18.954;2023-06-24T01:21:44;100703.22;;;18.20;58.11
79645;BME280;69117;47.148;18.954;2023-06-24T01:24:53;100685.31;;;18.05;57.96
79645;BME280;69117;47.148;18.954;2023-06-24T01:31:33;100689.19;;;18.03;57.91
79645;BME280;69117;47.148;18.954;2023-06-24T01:34:43;100679.44;;;18.10;58.07
79645;BME280;69117;47.148;18.954;2023-06-24T01:37:50;100684.78;;;18.10;58.04
79645;BME280;69117;47.148;18.954;2023-06-24T01:40:54;100678.88;;;18.00;57.97
79645;BME280;69117;47.148;18.954;2023-06-24T01:43:57;100693.53;;;17.89;58.02
79645;BME280;69117;47.148;18.954;2023-06-24T01:46:59;100698.97;;;17.96;58.02
79645;BME280;69117;47.148;18.954;2023-06-24T01:50:03;100680.44;;;17.79;57.98
79645;BME280;69117;47.148;18.954;2023-06-24T01:53:07;100688.66;;;18.22;58.11
79645;BME280;69117;47.148;18.954;2023-06-24T01:56:14;100691.66;;;18.49;58.11
79645;BME280;69117;47.148;18.954;2023-06-24T01:59:17;100687.75;;;18.51;58.08
79645;BME280;69117;47.148;18.954;2023-06-24T02:02:22;100693.44;;;18.63;58.07
79645;BME280;69117;47.148;18.954;2023-06-24T02:05:24;100679.50;;;18.68;58.20
79645;BME280;69117;47.148;18.954;2023-06-24T02:08:30;100683.03;;;18.53;58.10
79645;BME280;69117;47.148;18.954;2023-06-24T02:11:34;100682.63;;;18.35;58.04
79645;BME280;69117;47.148;18.954;2023-06-24T02:14:38;100699.16;;;18.09;57.89
79645;BME280;69117;47.148;18.954;2023-06-24T02:17:40;100693.50;;;17.74;57.62
79645;BME280;69117;47.148;18.954;2023-06-24T02:20:43;100692.31;;;17.77;57.85
79645;BME280;69117;47.148;18.954;2023-06-24T02:23:46;100683.59;;;17.60;57.94
79645;BME280;69117;47.148;18.954;2023-06-24T02:26:50;100684.94;;;17.94;58.07
79645;BME280;69117;47.148;18.954;2023-06-24T02:29:53;100704.50;;;17.94;58.03
79645;BME280;69117;47.148;18.954;2023-06-24T02:32:55;100707.94;;;17.65;57.88
79645;BME280;69117;47.148;18.954;2023-06-24T02:35:58;100714.94;;;18.04;58.20
79645;BME280;69117;47.148;18.954;2023-06-24T02:39:00;100718.59;;;17.88;58.08
79645;BME280;69117;47.148;18.954;2023-06-24T02:42:02;100716.22;;;17.93;58.14
79645;BME280;69117;47.148;18.954;2023-06-24T02:45:04;100708.78;;;17.66;58.01
79645;BME280;69117;47.148;18.954;2023-06-24T02:48:08;100700.25;;;17.47;57.75
79645;BME280;69117;47.148;18.954;2023-06-24T02:51:11;100690.78;;;17.45;57.96
79645;BME280;69117;47.148;18.954;2023-06-24T02:54:14;100670.88;;;17.47;58.04
79645;BME280;69117;47.148;18.954;2023-06-24T02:57:16;100679.97;;;17.38;57.96
79645;BME280;69117;47.148;18.954;2023-06-24T03:00:18;100690.84;;;17.36;57.96
79645;BME280;69117;47.148;18.954;2023-06-24T03:03:20;100694.72;;;17.34;57.91
79645;BME280;69117;47.148;18.954;2023-06-24T03:06:22;100697.66;;;17.39;57.97
79645;BME280;69117;47.148;18.954;2023-06-24T03:09:26;100712.78;;;17.47;58.16
79645;BME280;69117;47.148;18.954;2023-06-24T03:12:29;100722.00;;;17.44;58.13
79645;BME280;69117;47.148;18.954;2023-06-24T03:15:30;100735.09;;;17.54;58.12
79645;BME280;69117;47.148;18.954;2023-06-24T03:18:33;100749.94;;;17.56;58.17
79645;BME280;69117;47.148;18.954;2023-06-24T03:21:35;100758.44;;;17.83;58.12
79645;BME280;69117;47.148;18.954;2023-06-24T03:24:36;100757.34;;;18.07;58.08
79645;BME280;69117;47.148;18.954;2023-06-24T03:27:38;100772.06;;;18.03;58.14
79645;BME280;69117;47.148;18.954;2023-06-24T03:30:40;100775.34;;;18.13;58.15
79645;BME280;69117;47.148;18.954;2023-06-24T03:33:42;100772.00;;;18.11;58.01
79645;BME280;69117;47.148;18.954;2023-06-24T03:36:46;100772.91;;;18.18;57.97
79645;BME280;69117;47.148;18.954;2023-06-24T03:39:47;100777.53;;;18.24;58.06
79645;BME280;69117;47.148;18.954;2023-06-24T03:42:49;100770.38;;;18.25;57.94
79645;BME280;69117;47.148;18.954;2023-06-24T03:45:51;100769.53;;;18.10;57.99
79645;BME280;69117;47.148;18.954;2023-06-24T03:48:52;100773.78;;;18.19;57.93
79645;BME280;69117;47.148;18.954;2023-06-24T03:51:54;100780.66;;;17.98;57.83
79645;BME280;69117;47.148;18.954;2023-06-24T03:54:56;100769.31;;;17.96;57.73
79645;BME280;69117;47.148;18.954;2023-06-24T03:57:57;100775.78;;;18.02;57.77
79645;BME280;69117;47.148;18.954;2023-06-24T04:00:59;100784.00;;;18.00;57.75
79645;BME280;69117;47.148;18.954;2023-06-24T04:04:02;100792.94;;;18.07;57.79
79645;BME280;69117;47.148;18.954;2023-06-24T04:07:04;100792.66;;;18.17;57.58
79645;BME280;69117;47.148;18.954;2023-06-24T04:10:08;100801.41;;;18.11;57.51
79645;BME280;69117;47.148;18.954;2023-06-24T04:13:10;100802.81;;;18.07;57.64
79645;BME280;69117;47.148;18.954;2023-06-24T04:16:12;100814.06;;;18.17;57.47
79645;BME280;69117;47.148;18.954;2023-06-24T04:19:14;100800.31;;;18.05;57.40
79645;BME280;69117;47.148;18.954;2023-06-24T04:22:15;100808.25;;;18.28;57.15
79645;BME280;69117;47.148;18.954;2023-06-24T04:25:18;100813.16;;;18.25;57.29
79645;BME280;69117;47.148;18.954;2023-06-24T04:28:19;100794.91;;;18.43;57.20
79645;BME280;69117;47.148;18.954;2023-06-24T04:31:21;100803.53;;;18.60;57.26
79645;BME280;69117;47.148;18.954;2023-06-24T04:34:23;100804.09;;;18.70;56.90
79645;BME280;69117;47.148;18.954;2023-06-24T04:37:24;100793.13;;;18.65;56.90
79645;BME280;69117;47.148;18.954;2023-06-24T04:40:26;100803.63;;;18.96;57.04
79645;BME280;69117;47.148;18.954;2023-06-24T04:43:28;100804.97;;;19.07;56.93
79645;BME280;69117;47.148;18.954;2023-06-24T04:46:29;100806.50;;;18.95;56.64
79645;BME280;69117;47.148;18.954;2023-06-24T04:49:31;100811.66;;;18.96;56.44
79645;BME280;69117;47.148;18.954;2023-06-24T04:52:33;100813.88;;;18.93;56.41
79645;BME280;69117;47.148;18.954;2023-06-24T04:55:34;100817.72;;;19.05;56.30
79645;BME280;69117;47.148;18.954;2023-06-24T04:58:36;100825.94;;;19.40;56.50
79645;BME280;69117;47.148;18.954;2023-06-24T05:01:38;100821.84;;;19.44;56.32
79645;BME280;69117;47.148;18.954;2023-06-24T05:04:40;100817.69;;;19.63;56.16
79645;BME280;69117;47.148;18.954;2023-06-24T05:07:42;100805.34;;;19.62;56.24
79645;BME280;69117;47.148;18.954;2023-06-24T05:10:44;100813.38;;;19.40;55.92
79645;BME280;69117;47.148;18.954;2023-06-24T05:13:46;100815.72;;;19.29;56.02
79645;BME280;69117;47.148;18.954;2023-06-24T05:16:47;100821.78;;;19.37;56.05
79645;BME280;69117;47.148;18.954;2023-06-24T05:19:49;100828.72;;;19.68;56.21
79645;BME280;69117;47.148;18.954;2023-06-24T05:22:51;100818.94;;;19.82;55.91
79645;BME280;69117;47.148;18.954;2023-06-24T05:25:52;100805.78;;;19.44;55.54
79645;BME280;69117;47.148;18.954;2023-06-24T05:28:54;100819.66;;;19.33;55.90
79645;BME280;69117;47.148;18.954;2023-06-24T05:31:56;100825.66;;;19.71;56.27
79645;BME280;69117;47.148;18.954;2023-06-24T05:34:57;100823.03;;;19.78;55.91
79645;BME280;69117;47.148;18.954;2023-06-24T05:37:59;100826.88;;;19.97;55.91
79645;BME280;69117;47.148;18.954;2023-06-24T05:41:01;100822.16;;;20.27;55.99
79645;BME280;69117;47.148;18.954;2023-06-24T05:44:06;100825.38;;;20.44;55.72
79645;BME280;69117;47.148;18.954;2023-06-24T05:47:08;100838.31;;;20.33;55.50
79645;BME280;69117;47.148;18.954;2023-06-24T05:50:10;100819.47;;;20.27;55.42
79645;BME280;69117;47.148;18.954;2023-06-24T05:53:11;100831.84;;;20.00;55.46
79645;BME280;69117;47.148;18.954;2023-06-24T05:56:13;100844.56;;;20.41;55.74
79645;BME280;69117;47.148;18.954;2023-06-24T05:59:15;100846.34;;;20.62;55.48
79645;BME280;69117;47.148;18.954;2023-06-24T06:02:16;100845.56;;;20.68;55.41
79645;BME280;69117;47.148;18.954;2023-06-24T06:05:18;100853.91;;;20.86;54.74
79645;BME280;69117;47.148;18.954;2023-06-24T06:08:20;100870.84;;;20.80;55.39
79645;BME280;69117;47.148;18.954;2023-06-24T06:11:21;100866.03;;;21.17;54.91
79645;BME280;69117;47.148;18.954;2023-06-24T06:14:23;100858.81;;;21.24;54.92
79645;BME280;69117;47.148;18.954;2023-06-24T06:17:25;100857.25;;;20.88;54.92
79645;BME280;69117;47.148;18.954;2023-06-24T06:20:26;100852.66;;;20.82;54.65
79645;BME280;69117;47.148;18.954;2023-06-24T06:23:28;100861.97;;;20.86;54.52
79645;BME280;69117;47.148;18.954;2023-06-24T06:26:29;100857.44;;;20.87;54.30
79645;BME280;69117;47.148;18.954;2023-06-24T06:29:31;100858.59;;;21.12;54.74
79645;BME280;69117;47.148;18.954;2023-06-24T06:32:33;100850.72;;;21.17;54.64
79645;BME280;69117;47.148;18.954;2023-06-24T06:35:35;100861.09;;;21.27;54.57
79645;BME280;69117;47.148;18.954;2023-06-24T06:38:36;100859.47;;;20.85;54.20
79645;BME280;69117;47.148;18.954;2023-06-24T06:41:38;100857.78;;;21.18;54.36
79645;BME280;69117;47.148;18.954;2023-06-24T06:44:40;100863.31;;;21.10;54.13
79645;BME280;69117;47.148;18.954;2023-06-24T06:47:41;100859.81;;;21.10;54.53
79645;BME280;69117;47.148;18.954;2023-06-24T06:50:45;100844.75;;;21.15;54.12
79645;BME280;69117;47.148;18.954;2023-06-24T06:53:46;100853.94;;;21.41;54.26
79645;BME280;69117;47.148;18.954;2023-06-24T06:56:48;100851.38;;;21.26;54.24
79645;BME280;69117;47.148;18.954;2023-06-24T06:59:50;100853.38;;;21.85;55.05
79645;BME280;69117;47.148;18.954;2023-06-24T07:02:52;100858.75;;;21.79;54.11
79645;BME280;69117;47.148;18.954;2023-06-24T07:05:54;100859.38;;;21.81;54.13
79645;BME280;69117;47.148;18.954;2023-06-24T07:08:55;100862.25;;;21.66;54.29
79645;BME280;69117;47.148;18.954;2023-06-24T07:11:57;100854.63;;;21.83;54.76
79645;BME280;69117;47.148;18.954;2023-06-24T07:14:58;100845.53;;;22.30;54.47
79645;BME280;69117;47.148;18.954;2023-06-24T07:18:00;100861.44;;;22.38;53.85
79645;BME280;69117;47.148;18.954;2023-06-24T07:21:02;100868.41;;;22.79;53.92
79645;BME280;69117;47.148;18.954;2023-06-24T07:24:04;100867.41;;;22.67;53.66
79645;BME280;69117;47.148;18.954;2023-06-24T07:27:06;100862.38;;;22.77;53.89
79645;BME280;69117;47.148;18.954;2023-06-24T07:30:08;100861.25;;;22.33;53.15
79645;BME280;69117;47.148;18.954;2023-06-24T07:33:10;100866.47;;;22.93;53.41
79645;BME280;69117;47.148;18.954;2023-06-24T07:36:11;100866.91;;;22.90;52.75
79645;BME280;69117;47.148;18.954;2023-06-24T07:39:14;100870.56;;;22.37;76.78
79645;BME280;69117;47.148;18.954;2023-06-24T07:42:17;100870.34;;;22.52;77.68
79645;BME280;69117;47.148;18.954;2023-06-24T07:45:20;100875.31;;;22.49;77.22
79645;BME280;69117;47.148;18.954;2023-06-24T07:48:22;100871.41;;;22.25;78.93
79645;BME280;69117;47.148;18.954;2023-06-24T07:51:24;100875.50;;;22.47;78.69
79645;BME280;69117;47.148;18.954;2023-06-24T07:54:26;100878.97;;;22.94;78.56
79645;BME280;69117;47.148;18.954;2023-06-24T07:57:27;100869.66;;;23.28;77.90
79645;BME280;69117;47.148;18.954;2023-06-24T08:00:29;100870.59;;;23.09;76.74
79645;BME280;69117;47.148;18.954;2023-06-24T08:03:31;100882.06;;;23.43;77.19
79645;BME280;69117;47.148;18.954;2023-06-24T08:06:32;100877.69;;;22.90;73.72
79645;BME280;69117;47.148;18.954;2023-06-24T08:09:34;100896.47;;;22.45;77.88
79645;BME280;69117;47.148;18.954;2023-06-24T08:12:36;100894.97;;;22.56;79.29
79645;BME280;69117;47.148;18.954;2023-06-24T08:15:38;100901.44;;;22.28;77.78
79645;BME280;69117;47.148;18.954;2023-06-24T08:18:42;100911.34;;;22.01;79.88
79645;BME280;69117;47.148;18.954;2023-06-24T08:21:44;100908.25;;;22.17;80.55
79645;BME280;69117;47.148;18.954;2023-06-24T08:24:45;100903.31;;;22.21;80.41
79645;BME280;69117;47.148;18.954;2023-06-24T08:27:47;100908.88;;;22.26;79.32
79645;BME280;69117;47.148;18.954;2023-06-24T08:30:50;100897.31;;;22.19;79.70
79645;BME280;69117;47.148;18.954;2023-06-24T08:33:59;100876.34;;;22.48;78.13
79645;BME280;69117;47.148;18.954;2023-06-24T08:37:01;100900.97;;;22.71;78.24
79645;BME280;69117;47.148;18.954;2023-06-24T08:40:03;100897.19;;;22.85;77.76
79645;BME280;69117;47.148;18.954;2023-06-24T08:43:06;100895.00;;;23.27;75.50
79645;BME280;69117;47.148;18.954;2023-06-24T08:46:08;100899.09;;;23.37;77.49
79645;BME280;69117;47.148;18.954;2023-06-24T08:52:30;100902.47;;;24.20;73.48
79645;BME280;69117;47.148;18.954;2023-06-24T08:55:36;100898.34;;;23.61;75.18
79645;BME280;69117;47.148;18.954;2023-06-24T08:58:40;100895.47;;;23.11;76.12
79645;BME280;69117;47.148;18.954;2023-06-24T09:01:42;100887.97;;;23.20;75.07
79645;BME280;69117;47.148;18.954;2023-06-24T09:04:44;100889.88;;;23.13;77.13
79645;BME280;69117;47.148;18.954;2023-06-24T09:07:45;100900.06;;;23.04;77.98
79645;BME280;69117;47.148;18.954;2023-06-24T09:10:55;100896.97;;;22.94;77.70
79645;BME280;69117;47.148;18.954;2023-06-24T09:13:58;100905.25;;;22.99;75.60
79645;BME280;69117;47.148;18.954;2023-06-24T09:17:00;100903.63;;;23.43;76.32
79645;BME280;69117;47.148;18.954;2023-06-24T09:20:04;100907.16;;;23.82;75.73
79645;BME280;69117;47.148;18.954;2023-06-24T09:23:06;100913.09;;;23.90;72.75
79645;BME280;69117;47.148;18.954;2023-06-24T09:26:11;100910.19;;;24.17;73.94
79645;BME280;69117;47.148;18.954;2023-06-24T09:29:13;100903.19;;;24.34;70.81
79645;BME280;69117;47.148;18.954;2023-06-24T09:32:15;100890.22;;;25.23;68.36
79645;BME280;69117;47.148;18.954;2023-06-24T09:35:19;100889.31;;;24.74;71.46
79645;BME280;69117;47.148;18.954;2023-06-24T09:38:32;100883.47;;;24.34;71.90
79645;BME280;69117;47.148;18.954;2023-06-24T09:41:34;100880.84;;;24.89;72.42
79645;BME280;69117;47.148;18.954;2023-06-24T09:44:36;100876.28;;;25.38;69.35
79645;BME280;69117;47.148;18.954;2023-06-24T09:47:37;100885.91;;;26.41;69.63
79645;BME280;69117;47.148;18.954;2023-06-24T09:50:39;100891.78;;;25.91;68.51
79645;BME280;69117;47.148;18.954;2023-06-24T09:53:42;100884.16;;;26.12;71.48
79645;BME280;69117;47.148;18.954;2023-06-24T09:56:51;100874.03;;;25.77;66.27
79645;BME280;69117;47.148;18.954;2023-06-24T09:59:54;100865.03;;;25.53;69.38
79645;BME280;69117;47.148;18.954;2023-06-24T10:02:56;100868.00;;;26.28;68.15
79645;BME280;69117;47.148;18.954;2023-06-24T10:06:02;100876.44;;;25.43;68.44
79645;BME280;69117;47.148;18.954;2023-06-24T10:09:04;100880.56;;;25.46;66.04
79645;BME280;69117;47.148;18.954;2023-06-24T10:12:06;100872.00;;;25.61;69.37
79645;BME280;69117;47.148;18.954;2023-06-24T10:15:08;100881.09;;;26.32;67.72
79645;BME280;69117;47.148;18.954;2023-06-24T10:21:51;100873.41;;;26.05;65.48
79645;BME280;69117;47.148;18.954;2023-06-24T10:24:53;100871.44;;;26.24;64.84
79645;BME280;69117;47.148;18.954;2023-06-24T10:27:56;100872.47;;;26.35;67.18
79645;BME280;69117;47.148;18.954;2023-06-24T10:30:58;100879.75;;;25.87;68.04
79645;BME280;69117;47.148;18.954;2023-06-24T10:34:00;100894.69;;;25.48;65.74
79645;BME280;69117;47.148;18.954;2023-06-24T10:37:18;100888.63;;;26.65;65.39
79645;BME280;69117;47.148;18.954;2023-06-24T10:43:39;100884.25;;;26.28;64.60
79645;BME280;69117;47.148;18.954;2023-06-24T10:46:40;100877.53;;;26.19;67.70
79645;BME280;69117;47.148;18.954;2023-06-24T10:49:42;100870.13;;;26.15;63.60
79645;BME280;69117;47.148;18.954;2023-06-24T10:52:46;100880.72;;;26.40;65.04
79645;BME280;69117;47.148;18.954;2023-06-24T10:55:48;100866.34;;;27.72;60.41
79645;BME280;69117;47.148;18.954;2023-06-24T10:58:56;100861.38;;;25.89;62.13
79645;BME280;69117;47.148;18.954;2023-06-24T11:01:58;100872.34;;;25.94;61.46
79645;BME280;69117;47.148;18.954;2023-06-24T11:05:02;100867.19;;;25.63;62.35
79645;BME280;69117;47.148;18.954;2023-06-24T11:08:05;100858.41;;;25.79;66.20
79645;BME280;69117;47.148;18.954;2023-06-24T11:11:07;100861.06;;;25.97;65.89
79645;BME280;69117;47.148;18.954;2023-06-24T11:14:08;100840.00;;;25.57;64.88
79645;BME280;69117;47.148;18.954;2023-06-24T11:17:10;100841.72;;;25.40;65.33
79645;BME280;69117;47.148;18.954;2023-06-24T11:20:13;100836.81;;;25.00;68.05
79645;BME280;69117;47.148;18.954;2023-06-24T11:23:15;100835.31;;;25.04;68.09
79645;BME280;69117;47.148;18.954;2023-06-24T11:26:17;100827.56;;;25.08;66.23
79645;BME280;69117;47.148;18.954;2023-06-24T11:29:19;100823.75;;;24.97;64.88
79645;BME280;69117;47.148;18.954;2023-06-24T11:32:21;100819.31;;;25.21;64.95
79645;BME280;69117;47.148;18.954;2023-06-24T11:35:22;100820.25;;;24.97;67.03
79645;BME280;69117;47.148;18.954;2023-06-24T11:38:24;100817.28;;;25.17;67.48
79645;BME280;69117;47.148;18.954;2023-06-24T11:41:33;100813.34;;;24.82;67.34
79645;BME280;69117;47.148;18.954;2023-06-24T11:44:40;100814.13;;;25.01;68.92
79645;BME280;69117;47.148;18.954;2023-06-24T11:47:43;100816.91;;;25.13;69.63
79645;BME280;69117;47.148;18.954;2023-06-24T11:50:53;100816.53;;;25.40;66.04
79645;BME280;69117;47.148;18.954;2023-06-24T11:53:59;100824.66;;;26.52;63.21
79645;BME280;69117;47.148;18.954;2023-06-24T11:57:00;100840.31;;;27.76;61.04
79645;BME280;69117;47.148;18.954;2023-06-24T12:00:02;100825.28;;;27.69;62.70
79645;BME280;69117;47.148;18.954;2023-06-24T12:03:06;100806.75;;;26.91;62.03
79645;BME280;69117;47.148;18.954;2023-06-24T12:06:12;100805.88;;;27.14;59.43
79645;BME280;69117;47.148;18.954;2023-06-24T12:09:14;100797.88;;;28.43;58.68
79645;BME280;69117;47.148;18.954;2023-06-24T12:12:15;100775.16;;;28.76;55.91
79645;BME280;69117;47.148;18.954;2023-06-24T12:15:17;100778.97;;;28.75;56.48
79645;BME280;69117;47.148;18.954;2023-06-24T12:18:19;100769.25;;;29.06;54.97
79645;BME280;69117;47.148;18.954;2023-06-24T12:21:20;100778.16;;;29.29;50.92
79645;BME280;69117;47.148;18.954;2023-06-24T12:24:22;100789.50;;;29.15;54.04
79645;BME280;69117;47.148;18.954;2023-06-24T12:27:24;100778.97;;;28.53;53.46
79645;BME280;69117;47.148;18.954;2023-06-24T12:30:26;100774.41;;;29.35;53.34
79645;BME280;69117;47.148;18.954;2023-06-24T12:33:27;100774.94;;;28.56;57.46
79645;BME280;69117;47.148;18.954;2023-06-24T12:36:29;100784.94;;;27.27;56.41
79645;BME280;69117;47.148;18.954;2023-06-24T12:39:30;100780.44;;;26.63;60.98
79645;BME280;69117;47.148;18.954;2023-06-24T12:42:32;100763.72;;;26.55;60.20
79645;BME280;69117;47.148;18.954;2023-06-24T12:45:34;100771.88;;;26.83;59.72
79645;BME280;69117;47.148;18.954;2023-06-24T12:48:35;100769.97;;;27.24;59.28
79645;BME280;69117;47.148;18.954;2023-06-24T12:51:37;100759.41;;;28.34;54.61
79645;BME280;69117;47.148;18.954;2023-06-24T12:54:40;100773.91;;;27.50;56.39
79645;BME280;69117;47.148;18.954;2023-06-24T12:57:41;100768.56;;;28.06;54.43
79645;BME280;69117;47.148;18.954;2023-06-24T13:00:43;100770.34;;;29.64;51.53
79645;BME280;69117;47.148;18.954;2023-06-24T13:03:44;100768.69;;;29.04;51.25
79645;BME280;69117;47.148;18.954;2023-06-24T13:06:48;100784.22;;;27.48;56.62
79645;BME280;69117;47.148;18.954;2023-06-24T13:09:50;100781.44;;;28.76;53.48
79645;BME280;69117;47.148;18.954;2023-06-24T13:12:52;100787.84;;;29.74;49.51
79645;BME280;69117;47.148;18.954;2023-06-24T13:15:54;100793.34;;;28.48;51.77
79645;BME280;69117;47.148;18.954;2023-06-24T13:18:55;100790.63;;;27.42;54.25
79645;BME280;69117;47.148;18.954;2023-06-24T13:21:57;100786.00;;;28.98;51.07
79645;BME280;69117;47.148;18.954;2023-06-24T13:25:00;100784.94;;;28.72;51.81
79645;BME280;69117;47.148;18.954;2023-06-24T13:28:01;100780.66;;;27.31;57.86
79645;BME280;69117;47.148;18.954;2023-06-24T13:31:03;100806.59;;;26.69;57.68
79645;BME280;69117;47.148;18.954;2023-06-24T13:34:05;100788.69;;;28.27;53.98
79645;BME280;69117;47.148;18.954;2023-06-24T13:37:07;100782.56;;;30.52;48.74
79645;BME280;69117;47.148;18.954;2023-06-24T13:40:10;100776.88;;;30.53;49.03
79645;BME280;69117;47.148;18.954;2023-06-24T13:43:12;100779.34;;;28.62;56.35
79645;BME280;69117;47.148;18.954;2023-06-24T13:46:16;100787.56;;;27.38;57.73
79645;BME280;69117;47.148;18.954;2023-06-24T13:49:18;100787.53;;;26.53;58.35
79645;BME280;69117;47.148;18.954;2023-06-24T13:52:19;100788.06;;;27.07;61.10
79645;BME280;69117;47.148;18.954;2023-06-24T13:55:22;100780.66;;;27.02;60.87
79645;BME280;69117;47.148;18.954;2023-06-24T13:58:24;100782.97;;;27.10;59.52
79645;BME280;69117;47.148;18.954;2023-06-24T14:01:25;100783.16;;;28.22;57.06
79645;BME280;69117;47.148;18.954;2023-06-24T14:04:30;100784.88;;;29.48;54.03
79645;BME280;69117;47.148;18.954;2023-06-24T14:07:31;100779.03;;;30.51;47.83
79645;BME280;69117;47.148;18.954;2023-06-24T14:10:33;100776.59;;;30.07;47.76
79645;BME280;69117;47.148;18.954;2023-06-24T14:13:35;100783.66;;;30.46;48.58
79645;BME280;69117;47.148;18.954;2023-06-24T14:16:38;100775.03;;;30.74;45.80
79645;BME280;69117;47.148;18.954;2023-06-24T14:19:40;100765.31;;;31.70;46.04
79645;BME280;69117;47.148;18.954;2023-06-24T14:22:41;100768.44;;;29.06;52.22
79645;BME280;69117;47.148;18.954;2023-06-24T14:25:43;100776.97;;;27.54;55.46
79645;BME280;69117;47.148;18.954;2023-06-24T14:28:45;100776.84;;;27.15;59.31
79645;BME280;69117;47.148;18.954;2023-06-24T14:31:47;100767.56;;;26.70;58.47
79645;BME280;69117;47.148;18.954;2023-06-24T14:34:48;100759.13;;;26.43;63.56
79645;BME280;69117;47.148;18.954;2023-06-24T14:37:50;100764.50;;;26.95;58.73
79645;BME280;69117;47.148;18.954;2023-06-24T14:40:52;100754.81;;;28.79;55.30
79645;BME280;69117;47.148;18.954;2023-06-24T14:43:54;100745.88;;;29.10;54.74
79645;BME280;69117;47.148;18.954;2023-06-24T14:46:56;100742.47;;;29.20;50.90
79645;BME280;69117;47.148;18.954;2023-06-24T14:49:57;100744.63;;;29.55;51.86
79645;BME280;69117;47.148;18.954;2023-06-24T14:52:59;100742.38;;;28.88;51.77
79645;BME280;69117;47.148;18.954;2023-06-24T14:56:00;100730.31;;;29.38;50.71
79645;BME280;69117;47.148;18.954;2023-06-24T14:59:02;100727.97;;;29.14;51.12
79645;BME280;69117;47.148;18.954;2023-06-24T15:02:04;100715.66;;;29.44;51.28
79645;BME280;69117;47.148;18.954;2023-06-24T15:05:06;100721.59;;;28.76;52.07
79645;BME280;69117;47.148;18.954;2023-06-24T15:08:08;100717.56;;;29.06;52.57
79645;BME280;69117;47.148;18.954;2023-06-24T15:11:10;100716.69;;;28.51;51.83
79645;BME280;69117;47.148;18.954;2023-06-24T15:14:11;100711.94;;;28.91;51.31
79645;BME280;69117;47.148;18.954;2023-06-24T15:17:13;100713.72;;;29.02;52.83
79645;BME280;69117;47.148;18.954;2023-06-24T15:20:15;100711.28;;;29.06;51.47
79645;BME280;69117;47.148;18.954;2023-06-24T15:23:17;100718.66;;;29.10;50.83
79645;BME280;69117;47.148;18.954;2023-06-24T15:26:18;100705.19;;;28.98;49.17
79645;BME280;69117;47.148;18.954;2023-06-24T15:29:20;100703.34;;;29.31;49.30
79645;BME280;69117;47.148;18.954;2023-06-24T15:32:21;100707.97;;;29.63;49.85
79645;BME280;69117;47.148;18.954;2023-06-24T15:35:23;100713.94;;;29.65;50.66
79645;BME280;69117;47.148;18.954;2023-06-24T15:38:25;100702.03;;;28.52;51.09
79645;BME280;69117;47.148;18.954;2023-06-24T15:41:26;100709.13;;;28.81;52.23
79645;BME280;69117;47.148;18.954;2023-06-24T15:44:28;100706.38;;;28.31;53.22
79645;BME280;69117;47.148;18.954;2023-06-24T15:47:31;100705.13;;;28.39;52.70
79645;BME280;69117;47.148;18.954;2023-06-24T15:50:33;100702.25;;;28.73;51.99
79645;BME280;69117;47.148;18.954;2023-06-24T15:53:35;100696.56;;;27.70;53.74
79645;BME280;69117;47.148;18.954;2023-06-24T15:56:37;100688.69;;;28.07;54.06